createdAt,value
2022-07-28T00:00:03.281Z,980.97
2022-07-28T00:01:03.263Z,980.94
2022-07-28T00:02:03.385Z,980.97
2022-07-28T00:03:03.268Z,980.97
2022-07-28T00:04:03.229Z,980.86
2022-07-28T00:05:03.241Z,980.86
2022-07-28T00:06:03.210Z,980.86
2022-07-28T00:07:03.266Z,980.83
2022-07-28T00:08:03.414Z,980.80
2022-07-28T00:09:03.463Z,980.98
2022-07-28T00:10:03.915Z,980.92
2022-07-28T00:12:03.839Z,980.89
2022-07-28T00:13:07.171Z,980.89
2022-07-28T00:14:04.169Z,980.89
2022-07-28T00:15:03.778Z,980.87
2022-07-28T00:16:04.026Z,980.87
2022-07-28T00:17:03.918Z,980.89
2022-07-28T00:18:03.907Z,980.87
2022-07-28T00:19:03.862Z,980.78
2022-07-28T00:20:03.836Z,980.78
2022-07-28T00:21:03.876Z,980.75
2022-07-28T00:22:02.914Z,980.81
2022-07-28T00:23:03.040Z,980.78
2022-07-28T00:24:03.010Z,980.75
2022-07-28T00:25:02.972Z,980.70
2022-07-28T00:26:02.981Z,980.81
2022-07-28T00:27:03.822Z,980.79
2022-07-28T00:28:03.858Z,980.70
2022-07-28T00:29:02.961Z,980.64
2022-07-28T00:30:02.932Z,980.59
2022-07-28T00:31:09.433Z,980.67
2022-07-28T00:32:03.367Z,980.67
2022-07-28T00:33:04.995Z,980.62
2022-07-28T00:34:03.163Z,980.65
2022-07-28T00:35:03.345Z,980.62
2022-07-28T00:36:03.322Z,980.65
2022-07-28T00:37:07.103Z,980.65
2022-07-28T00:38:04.044Z,980.62
2022-07-28T00:39:03.480Z,980.65
2022-07-28T00:40:03.826Z,980.68
2022-07-28T00:41:03.802Z,980.68
2022-07-28T00:42:03.858Z,980.74
2022-07-28T00:43:03.875Z,980.68
2022-07-28T00:44:03.514Z,980.60
2022-07-28T00:45:03.530Z,980.65
2022-07-28T00:46:03.615Z,980.54
2022-07-28T00:47:03.659Z,980.66
2022-07-28T00:48:03.545Z,980.68
2022-07-28T00:49:03.610Z,980.63
2022-07-28T00:50:03.418Z,980.60
2022-07-28T00:51:03.460Z,980.60
2022-07-28T00:52:03.534Z,980.54
2022-07-28T00:53:05.091Z,980.63
2022-07-28T00:54:03.519Z,980.54
2022-07-28T00:55:03.436Z,980.48
2022-07-28T00:56:07.190Z,980.51
2022-07-28T00:57:03.443Z,980.43
2022-07-28T00:58:03.789Z,980.60
2022-07-28T00:59:03.823Z,980.43
2022-07-28T01:00:03.849Z,980.52
2022-07-28T01:01:02.948Z,980.57
2022-07-28T01:02:03.121Z,980.43
2022-07-28T01:03:03.118Z,980.49
2022-07-28T01:04:02.997Z,980.49
2022-07-28T01:05:02.937Z,980.40
2022-07-28T01:06:02.936Z,980.35
2022-07-28T01:07:02.882Z,980.40
2022-07-28T01:08:02.991Z,980.49
2022-07-28T01:09:03.132Z,980.52
2022-07-28T01:10:03.176Z,980.38
2022-07-28T01:11:03.219Z,980.44
2022-07-28T01:12:03.195Z,980.41
2022-07-28T01:13:03.125Z,980.38
2022-07-28T01:14:03.219Z,980.47
2022-07-28T01:15:03.254Z,980.35
2022-07-28T01:16:03.388Z,980.47
2022-07-28T01:17:03.297Z,980.35
2022-07-28T01:18:03.329Z,980.44
2022-07-28T01:19:03.246Z,980.56
2022-07-28T01:20:03.298Z,980.36
2022-07-28T01:21:03.452Z,980.36
2022-07-28T01:22:03.377Z,980.33
2022-07-28T01:23:03.287Z,980.53
2022-07-28T01:24:03.295Z,980.47
2022-07-28T01:25:02.964Z,980.39
2022-07-28T01:26:03.203Z,980.44
2022-07-28T01:27:03.206Z,980.42
2022-07-28T01:28:04.550Z,980.42
2022-07-28T01:29:03.725Z,980.42
2022-07-28T01:30:03.785Z,980.42
2022-07-28T01:31:03.808Z,980.39
2022-07-28T01:32:03.721Z,980.39
2022-07-28T01:33:03.806Z,980.30
2022-07-28T01:34:03.740Z,980.36
2022-07-28T01:35:04.450Z,980.39
2022-07-28T01:36:03.812Z,980.25
2022-07-28T01:37:03.829Z,980.28
2022-07-28T01:38:02.887Z,980.33
2022-07-28T01:39:03.919Z,980.33
2022-07-28T01:40:03.017Z,980.31
2022-07-28T01:41:03.252Z,980.42
2022-07-28T01:42:02.957Z,980.28
2022-07-28T01:43:02.928Z,980.28
2022-07-28T01:44:03.030Z,980.22
2022-07-28T01:45:03.039Z,980.31
2022-07-28T01:46:03.084Z,980.42
2022-07-28T01:47:03.047Z,980.31
2022-07-28T01:48:03.048Z,980.34
2022-07-28T01:49:03.230Z,980.42
2022-07-28T01:50:03.153Z,980.37
2022-07-28T01:51:03.142Z,980.37
2022-07-28T01:52:03.171Z,980.25
2022-07-28T01:53:03.197Z,980.34
2022-07-28T01:54:03.240Z,980.37
2022-07-28T01:55:03.256Z,980.37
2022-07-28T01:56:03.285Z,980.23
2022-07-28T01:57:03.304Z,980.18
2022-07-28T01:58:03.265Z,980.34
2022-07-28T01:59:03.208Z,980.31
2022-07-28T02:00:03.206Z,980.31
2022-07-28T02:01:03.259Z,980.34
2022-07-28T02:02:03.521Z,980.23
2022-07-28T02:03:03.216Z,980.12
2022-07-28T02:04:03.450Z,980.34
2022-07-28T02:05:03.395Z,980.23
2022-07-28T02:06:03.253Z,980.23
2022-07-28T02:07:03.225Z,980.26
2022-07-28T02:08:03.308Z,980.29
2022-07-28T02:09:03.367Z,980.29
2022-07-28T02:10:03.688Z,980.38
2022-07-28T02:11:04.560Z,980.26
2022-07-28T02:12:03.656Z,980.16
2022-07-28T02:13:03.764Z,980.41
2022-07-28T02:14:03.838Z,980.38
2022-07-28T02:15:03.570Z,980.41
2022-07-28T02:16:03.679Z,980.26
2022-07-28T02:17:03.621Z,980.29
2022-07-28T02:18:03.741Z,980.41
2022-07-28T02:19:03.642Z,980.32
2022-07-28T02:20:03.714Z,980.35
2022-07-28T02:21:03.666Z,980.52
2022-07-28T02:22:03.716Z,980.27
2022-07-28T02:23:03.629Z,980.32
2022-07-28T02:24:03.897Z,980.41
2022-07-28T02:25:03.826Z,980.53
2022-07-28T02:26:03.813Z,980.41
2022-07-28T02:27:02.940Z,980.36
2022-07-28T02:28:03.925Z,980.42
2022-07-28T02:29:03.018Z,980.42
2022-07-28T02:30:02.976Z,980.39
2022-07-28T02:31:03.165Z,980.50
2022-07-28T02:32:03.062Z,980.45
2022-07-28T02:33:03.852Z,980.39
2022-07-28T02:34:02.989Z,980.36
2022-07-28T02:35:02.937Z,980.33
2022-07-28T02:36:04.058Z,980.36
2022-07-28T02:37:03.382Z,980.36
2022-07-28T02:38:03.904Z,980.39
2022-07-28T02:39:03.008Z,980.42
2022-07-28T02:40:02.883Z,980.42
2022-07-28T02:41:03.065Z,980.30
2022-07-28T02:42:03.246Z,980.25
2022-07-28T02:43:03.355Z,980.42
2022-07-28T02:44:03.413Z,980.45
2022-07-28T02:45:03.352Z,980.33
2022-07-28T02:46:03.554Z,980.39
2022-07-28T02:47:03.285Z,980.33
2022-07-28T02:48:02.965Z,980.36
2022-07-28T02:49:04.110Z,980.22
2022-07-28T02:50:02.924Z,980.39
2022-07-28T02:51:03.521Z,980.33
2022-07-28T02:52:03.464Z,980.45
2022-07-28T02:53:16.257Z,980.31
2022-07-28T02:54:03.492Z,980.28
2022-07-28T02:55:03.636Z,980.14
2022-07-28T02:56:03.209Z,980.31
2022-07-28T02:57:03.040Z,980.33
2022-07-28T02:58:06.719Z,980.25
2022-07-28T02:59:03.119Z,980.22
2022-07-28T03:00:03.103Z,980.17
2022-07-28T03:01:03.218Z,980.25
2022-07-28T03:02:03.141Z,980.12
2022-07-28T03:03:03.214Z,980.09
2022-07-28T03:04:03.327Z,980.18
2022-07-28T03:05:11.267Z,980.31
2022-07-28T03:06:03.337Z,980.22
2022-07-28T03:07:04.119Z,980.28
2022-07-28T03:08:03.566Z,980.18
2022-07-28T03:09:07.194Z,980.25
2022-07-28T03:10:03.525Z,980.25
2022-07-28T03:11:03.560Z,980.31
2022-07-28T03:12:03.466Z,980.34
2022-07-28T03:13:03.707Z,980.26
2022-07-28T03:14:03.715Z,980.26
2022-07-28T03:15:03.838Z,980.43
2022-07-28T03:16:03.821Z,980.31
2022-07-28T03:17:03.396Z,980.23
2022-07-28T03:18:03.206Z,980.31
2022-07-28T03:19:03.409Z,980.34
2022-07-28T03:20:03.237Z,980.31
2022-07-28T03:21:03.237Z,980.26
2022-07-28T03:22:03.455Z,980.23
2022-07-28T03:23:03.435Z,980.23
2022-07-28T03:24:03.464Z,980.23
2022-07-28T03:25:03.548Z,980.15
2022-07-28T03:26:03.386Z,980.18
2022-07-28T03:27:03.510Z,980.18
2022-07-28T03:28:03.437Z,980.18
2022-07-28T03:29:03.380Z,980.29
2022-07-28T03:30:04.583Z,980.16
2022-07-28T03:31:03.697Z,980.13
2022-07-28T03:32:02.956Z,980.23
2022-07-28T03:33:03.861Z,980.10
2022-07-28T03:34:02.894Z,980.10
2022-07-28T03:35:02.961Z,979.99
2022-07-28T03:36:03.027Z,980.01
2022-07-28T03:37:03.009Z,980.10
2022-07-28T03:38:03.082Z,980.07
2022-07-28T03:39:03.088Z,980.21
2022-07-28T03:40:03.188Z,980.16
2022-07-28T03:41:03.087Z,980.21
2022-07-28T03:42:03.061Z,980.26
2022-07-28T03:43:06.026Z,980.13
2022-07-28T03:44:03.100Z,980.23
2022-07-28T03:45:04.355Z,980.07
2022-07-28T03:46:03.598Z,980.10
2022-07-28T03:47:03.421Z,980.18
2022-07-28T03:48:03.539Z,980.40
2022-07-28T03:49:03.691Z,980.15
2022-07-28T03:50:03.658Z,980.07
2022-07-28T03:51:03.833Z,980.18
2022-07-28T03:52:02.959Z,980.26
2022-07-28T03:53:03.043Z,980.15
2022-07-28T03:54:03.083Z,980.37
2022-07-28T03:55:03.013Z,980.23
2022-07-28T03:56:03.383Z,980.28
2022-07-28T03:57:03.096Z,980.31
2022-07-28T03:58:03.064Z,980.22
2022-07-28T03:59:03.849Z,980.22
2022-07-28T04:00:09.982Z,980.09
2022-07-28T04:01:03.962Z,980.28
2022-07-28T04:02:04.054Z,980.28
2022-07-28T04:03:03.887Z,980.25
2022-07-28T04:04:03.844Z,980.22
2022-07-28T04:05:03.827Z,980.25
2022-07-28T04:06:03.871Z,980.11
2022-07-28T04:07:03.815Z,980.14
2022-07-28T04:08:02.993Z,980.14
2022-07-28T04:09:02.968Z,980.05
2022-07-28T04:10:03.049Z,980.22
2022-07-28T04:11:02.929Z,980.11
2022-07-28T04:12:02.908Z,980.11
2022-07-28T04:13:02.929Z,980.16
2022-07-28T04:14:03.108Z,980.21
2022-07-28T04:15:03.050Z,980.07
2022-07-28T04:16:03.047Z,980.21
2022-07-28T04:17:03.330Z,980.16
2022-07-28T04:18:03.201Z,980.16
2022-07-28T04:19:03.669Z,980.15
2022-07-28T04:20:03.285Z,980.23
2022-07-28T04:21:03.453Z,980.07
2022-07-28T04:22:03.414Z,980.12
2022-07-28T04:23:03.440Z,980.15
2022-07-28T04:24:03.517Z,980.00
2022-07-28T04:25:03.156Z,980.22
2022-07-28T04:26:03.209Z,980.11
2022-07-28T04:27:03.222Z,980.30
2022-07-28T04:28:05.814Z,980.21
2022-07-28T04:29:03.942Z,980.21
2022-07-28T04:30:03.481Z,980.13
2022-07-28T04:31:03.188Z,980.10
2022-07-28T04:32:02.970Z,980.26
2022-07-28T04:33:02.987Z,980.28
2022-07-28T04:34:02.995Z,980.28
2022-07-28T04:35:03.090Z,980.17
2022-07-28T04:36:03.018Z,980.14
2022-07-28T04:37:03.106Z,980.36
2022-07-28T04:38:03.147Z,980.22
2022-07-28T04:39:03.212Z,980.39
2022-07-28T04:40:03.205Z,980.27
2022-07-28T04:41:03.171Z,980.17
2022-07-28T04:42:03.231Z,980.33
2022-07-28T04:43:03.223Z,980.44
2022-07-28T04:44:03.483Z,980.33
2022-07-28T04:45:03.521Z,980.35
2022-07-28T04:46:03.627Z,980.27
2022-07-28T04:47:06.812Z,980.44
2022-07-28T04:48:03.547Z,980.32
2022-07-28T04:49:03.773Z,980.32
2022-07-28T04:50:03.628Z,980.16
2022-07-28T04:51:03.602Z,980.27
2022-07-28T04:52:03.676Z,980.24
2022-07-28T04:53:03.822Z,980.38
2022-07-28T04:54:03.868Z,980.29
2022-07-28T04:55:02.917Z,980.32
2022-07-28T04:56:02.925Z,980.29
2022-07-28T04:57:08.239Z,980.43
2022-07-28T04:58:04.151Z,980.43
2022-07-28T04:59:04.973Z,980.29
2022-07-28T05:00:03.472Z,980.28
2022-07-28T05:01:03.231Z,980.22
2022-07-28T05:02:03.054Z,980.31
2022-07-28T05:03:02.985Z,980.22
2022-07-28T05:04:02.944Z,980.36
2022-07-28T05:05:03.289Z,980.27
2022-07-28T05:06:03.080Z,980.36
2022-07-28T05:07:12.961Z,980.27
2022-07-28T05:08:03.149Z,980.27
2022-07-28T05:09:03.180Z,980.46
2022-07-28T05:10:03.272Z,980.40
2022-07-28T05:11:03.332Z,980.37
2022-07-28T05:12:03.460Z,980.42
2022-07-28T05:13:03.491Z,980.48
2022-07-28T05:14:03.508Z,980.42
2022-07-28T05:15:03.549Z,980.39
2022-07-28T05:16:03.920Z,980.56
2022-07-28T05:17:03.923Z,980.50
2022-07-28T05:18:03.761Z,980.53
2022-07-28T05:19:03.839Z,980.45
2022-07-28T05:20:04.113Z,980.51
2022-07-28T05:21:03.845Z,980.53
2022-07-28T05:22:03.798Z,980.56
2022-07-28T05:23:03.784Z,980.62
2022-07-28T05:24:03.682Z,980.56
2022-07-28T05:25:03.804Z,980.62
2022-07-28T05:26:02.885Z,980.62
2022-07-28T05:27:03.083Z,980.59
2022-07-28T05:28:03.078Z,980.54
2022-07-28T05:29:03.072Z,980.62
2022-07-28T05:30:03.128Z,980.59
2022-07-28T05:31:03.104Z,980.70
2022-07-28T05:32:17.806Z,980.70
2022-07-28T05:33:03.644Z,980.59
2022-07-28T05:34:03.840Z,980.67
2022-07-28T05:35:03.701Z,980.73
2022-07-28T05:36:03.782Z,980.73
2022-07-28T05:37:03.805Z,980.75
2022-07-28T05:38:10.907Z,980.72
2022-07-28T05:39:03.841Z,980.75
2022-07-28T05:40:03.771Z,980.75
2022-07-28T05:41:03.812Z,980.81
2022-07-28T05:42:03.877Z,980.75
2022-07-28T05:43:03.861Z,980.80
2022-07-28T05:44:03.852Z,980.68
2022-07-28T05:45:02.955Z,980.76
2022-07-28T05:46:03.261Z,980.84
2022-07-28T05:47:03.160Z,980.81
2022-07-28T05:48:03.270Z,980.81
2022-07-28T05:49:03.462Z,980.72
2022-07-28T05:50:03.286Z,980.83
2022-07-28T05:51:03.307Z,980.82
2022-07-28T05:52:03.275Z,980.85
2022-07-28T05:53:03.342Z,980.90
2022-07-28T05:54:03.380Z,980.72
2022-07-28T05:55:03.419Z,980.80
2022-07-28T05:56:03.329Z,980.85
2022-07-28T05:57:03.408Z,980.91
2022-07-28T05:58:03.354Z,980.99
2022-07-28T05:59:03.358Z,980.96
2022-07-28T06:00:03.616Z,980.96
2022-07-28T06:01:03.788Z,980.90
2022-07-28T06:02:03.707Z,980.93
2022-07-28T06:03:03.752Z,981.01
2022-07-28T06:04:28.105Z,980.84
2022-07-28T06:05:03.863Z,981.13
2022-07-28T06:06:17.124Z,981.13
2022-07-28T06:07:03.001Z,981.04
2022-07-28T06:08:03.108Z,981.09
2022-07-28T06:09:03.217Z,981.06
2022-07-28T06:10:04.549Z,981.17
2022-07-28T06:11:03.257Z,981.20
2022-07-28T06:12:03.396Z,981.28
2022-07-28T06:13:03.233Z,981.22
2022-07-28T06:14:03.359Z,981.27
2022-07-28T06:15:03.493Z,981.24
2022-07-28T06:16:03.557Z,981.35
2022-07-28T06:17:03.898Z,981.29
2022-07-28T06:18:03.741Z,981.34
2022-07-28T06:19:03.850Z,981.46
2022-07-28T06:20:03.843Z,981.31
2022-07-28T06:21:04.375Z,981.28
2022-07-28T06:22:03.891Z,981.48
2022-07-28T06:23:02.957Z,981.48
2022-07-28T06:24:03.047Z,981.39
2022-07-28T06:25:03.480Z,981.42
2022-07-28T06:26:03.078Z,981.45
2022-07-28T06:27:03.675Z,981.58
2022-07-28T06:28:03.708Z,981.64
2022-07-28T06:29:03.850Z,981.72
2022-07-28T06:30:03.840Z,981.81
2022-07-28T06:31:03.913Z,981.72
2022-07-28T06:32:04.045Z,981.75
2022-07-28T06:33:03.769Z,981.78
2022-07-28T06:34:03.881Z,981.81
2022-07-28T06:35:03.836Z,981.78
2022-07-28T06:36:03.772Z,981.81
2022-07-28T06:37:03.953Z,981.81
2022-07-28T06:38:03.236Z,981.84
2022-07-28T06:39:02.945Z,981.92
2022-07-28T06:40:03.024Z,981.80
2022-07-28T06:41:03.008Z,981.83
2022-07-28T06:42:03.162Z,981.83
2022-07-28T06:43:03.255Z,981.77
2022-07-28T06:44:03.768Z,981.91
2022-07-28T06:45:03.759Z,981.91
2022-07-28T06:46:03.749Z,981.99
2022-07-28T06:47:03.972Z,981.99
2022-07-28T06:48:03.762Z,981.96
2022-07-28T06:49:03.975Z,981.96
2022-07-28T06:50:03.809Z,981.98
2022-07-28T06:51:03.825Z,981.98
2022-07-28T06:52:03.825Z,982.06
2022-07-28T06:53:05.512Z,981.83
2022-07-28T06:54:11.493Z,981.86
2022-07-28T06:55:04.872Z,981.91
2022-07-28T06:56:04.047Z,981.88
2022-07-28T06:57:03.436Z,981.84
2022-07-28T06:58:03.060Z,981.81
2022-07-28T06:59:03.182Z,982.04
2022-07-28T07:00:03.218Z,981.92
2022-07-28T07:01:03.499Z,981.94
2022-07-28T07:02:03.433Z,981.88
2022-07-28T07:03:03.598Z,981.93
2022-07-28T07:04:03.677Z,981.93
2022-07-28T07:05:03.638Z,982.04
2022-07-28T07:06:03.672Z,982.04
2022-07-28T07:07:17.213Z,982.04
2022-07-28T07:08:03.605Z,982.25
2022-07-28T07:09:03.766Z,982.28
2022-07-28T07:10:03.674Z,982.24
2022-07-28T07:11:03.895Z,982.21
2022-07-28T07:12:03.869Z,982.18
2022-07-28T07:13:02.923Z,982.24
2022-07-28T07:14:03.152Z,982.24
2022-07-28T07:15:03.047Z,982.32
2022-07-28T07:16:03.237Z,982.32
2022-07-28T07:17:03.250Z,982.35
2022-07-28T07:18:03.226Z,982.34
2022-07-28T07:19:08.235Z,982.37
2022-07-28T07:20:03.209Z,982.46
2022-07-28T07:21:03.133Z,982.28
2022-07-28T07:22:03.138Z,982.34
2022-07-28T07:23:03.089Z,982.36
2022-07-28T07:24:03.234Z,982.45
2022-07-28T07:25:03.418Z,982.33
2022-07-28T07:26:03.316Z,982.36
2022-07-28T07:27:03.266Z,982.41
2022-07-28T07:28:03.169Z,982.35
2022-07-28T07:29:03.268Z,982.38
2022-07-28T07:30:03.205Z,982.49
2022-07-28T07:31:03.339Z,982.46
2022-07-28T07:32:10.683Z,982.49
2022-07-28T07:33:09.676Z,982.37
2022-07-28T07:34:03.275Z,982.20
2022-07-28T07:35:03.341Z,982.31
2022-07-28T07:36:03.424Z,982.37
2022-07-28T07:37:03.343Z,982.37
2022-07-28T07:38:03.521Z,982.48
2022-07-28T07:39:03.523Z,982.43
2022-07-28T07:40:02.942Z,982.40
2022-07-28T07:41:02.913Z,982.49
2022-07-28T07:42:03.094Z,982.55
2022-07-28T07:43:03.099Z,982.49
2022-07-28T07:44:03.193Z,982.52
2022-07-28T07:45:03.292Z,982.43
2022-07-28T07:46:03.414Z,982.43
2022-07-28T07:47:03.624Z,982.45
2022-07-28T07:48:03.435Z,982.48
2022-07-28T07:49:03.793Z,982.42
2022-07-28T07:50:04.922Z,982.63
2022-07-28T07:51:03.565Z,982.36
2022-07-28T07:52:03.701Z,982.51
2022-07-28T07:53:03.902Z,982.51
2022-07-28T07:54:03.832Z,982.51
2022-07-28T07:55:02.928Z,982.45
2022-07-28T07:56:02.943Z,982.48
2022-07-28T07:57:03.061Z,982.54
2022-07-28T07:58:03.269Z,982.51
2022-07-28T07:59:03.096Z,982.63
2022-07-28T08:00:03.223Z,982.51
2022-07-28T08:01:03.811Z,982.57
2022-07-28T08:02:04.055Z,982.56
2022-07-28T08:03:03.826Z,982.65
2022-07-28T08:04:03.499Z,982.65
2022-07-28T08:05:03.462Z,982.53
2022-07-28T08:06:03.230Z,982.62
2022-07-28T08:07:03.618Z,982.47
2022-07-28T08:08:03.356Z,982.47
2022-07-28T08:09:03.445Z,982.50
2022-07-28T08:10:03.485Z,982.47
2022-07-28T08:11:04.255Z,982.56
2022-07-28T08:12:03.545Z,982.59
2022-07-28T08:13:03.582Z,982.71
2022-07-28T08:14:03.471Z,982.79
2022-07-28T08:15:03.567Z,982.65
2022-07-28T08:16:03.753Z,982.85
2022-07-28T08:17:03.560Z,982.88
2022-07-28T08:18:03.570Z,982.82
2022-07-28T08:19:06.316Z,982.74
2022-07-28T08:20:03.694Z,982.82
2022-07-28T08:21:03.690Z,982.88
2022-07-28T08:22:03.630Z,982.82
2022-07-28T08:23:03.671Z,982.99
2022-07-28T08:24:03.748Z,982.82
2022-07-28T08:25:03.791Z,982.87
2022-07-28T08:26:03.817Z,982.87
2022-07-28T08:27:03.908Z,982.81
2022-07-28T08:28:03.766Z,982.84
2022-07-28T08:29:03.858Z,982.81
2022-07-28T08:30:02.920Z,982.81
2022-07-28T08:31:03.094Z,982.93
2022-07-28T08:32:03.033Z,982.98
2022-07-28T08:33:03.258Z,982.84
2022-07-28T08:34:03.137Z,983.10
2022-07-28T08:35:33.939Z,982.84
2022-07-28T08:36:03.103Z,982.90
2022-07-28T08:37:03.565Z,982.84
2022-07-28T08:38:03.769Z,982.90
2022-07-28T08:39:03.843Z,982.99
2022-07-28T08:40:03.782Z,982.96
2022-07-28T08:41:03.287Z,982.93
2022-07-28T08:42:03.300Z,982.81
2022-07-28T08:43:03.253Z,983.07
2022-07-28T08:44:03.198Z,983.01
2022-07-28T08:45:03.223Z,983.13
2022-07-28T08:46:03.445Z,982.98
2022-07-28T08:47:03.477Z,982.89
2022-07-28T08:48:09.585Z,982.98
2022-07-28T08:49:03.454Z,982.98
2022-07-28T08:50:03.540Z,982.98
2022-07-28T08:51:03.440Z,983.01
2022-07-28T08:52:03.516Z,982.92
2022-07-28T08:53:03.509Z,982.97
2022-07-28T08:54:03.811Z,982.88
2022-07-28T08:55:03.635Z,983.03
2022-07-28T08:56:03.584Z,982.94
2022-07-28T08:57:03.734Z,982.94
2022-07-28T08:58:03.725Z,983.03
2022-07-28T08:59:03.862Z,983.03
2022-07-28T09:00:03.887Z,982.88
2022-07-28T09:01:03.884Z,983.00
2022-07-28T09:02:03.121Z,983.00
2022-07-28T09:03:03.034Z,983.08
2022-07-28T09:04:02.955Z,983.11
2022-07-28T09:05:02.886Z,983.03
2022-07-28T09:06:02.910Z,983.09
2022-07-28T09:07:03.037Z,983.09
2022-07-28T09:08:02.967Z,982.94
2022-07-28T09:09:03.179Z,983.00
2022-07-28T09:10:03.516Z,982.97
2022-07-28T09:11:03.143Z,982.94
2022-07-28T09:12:03.089Z,982.94
2022-07-28T09:13:03.181Z,982.94
2022-07-28T09:14:03.167Z,982.91
2022-07-28T09:15:03.359Z,982.85
2022-07-28T09:16:03.620Z,982.97
2022-07-28T09:17:06.151Z,982.97
2022-07-28T09:18:03.558Z,982.94
2022-07-28T09:19:03.463Z,982.91
2022-07-28T09:20:11.190Z,982.88
2022-07-28T09:21:03.580Z,982.91
2022-07-28T09:22:03.659Z,982.88
2022-07-28T09:23:03.605Z,982.94
2022-07-28T09:24:03.724Z,982.88
2022-07-28T09:25:03.811Z,982.91
2022-07-28T09:26:10.773Z,983.00
2022-07-28T09:27:02.900Z,982.85
2022-07-28T09:28:03.006Z,982.88
2022-07-28T09:29:03.081Z,982.96
2022-07-28T09:30:03.649Z,982.88
2022-07-28T09:31:03.794Z,982.85
2022-07-28T09:32:03.937Z,982.71
2022-07-28T09:33:03.823Z,982.79
2022-07-28T09:34:03.960Z,982.74
2022-07-28T09:35:03.905Z,982.74
2022-07-28T09:36:03.192Z,982.73
2022-07-28T09:37:03.090Z,982.67
2022-07-28T09:38:02.985Z,982.78
2022-07-28T09:39:03.110Z,982.90
2022-07-28T09:40:04.550Z,982.84
2022-07-28T09:41:03.405Z,982.78
2022-07-28T09:42:03.385Z,982.81
2022-07-28T09:43:03.395Z,982.67
2022-07-28T09:44:03.404Z,982.56
2022-07-28T09:45:23.619Z,982.64
2022-07-28T09:46:03.738Z,982.56
2022-07-28T09:47:03.910Z,982.78
2022-07-28T09:48:04.049Z,982.78
2022-07-28T09:49:04.190Z,982.87
2022-07-28T09:50:03.912Z,982.64
2022-07-28T09:51:03.679Z,982.55
2022-07-28T09:52:03.741Z,982.72
2022-07-28T09:53:03.856Z,982.64
2022-07-28T09:54:03.880Z,982.63
2022-07-28T09:55:03.925Z,982.66
2022-07-28T09:56:03.908Z,982.52
2022-07-28T09:57:02.906Z,982.63
2022-07-28T09:58:04.090Z,982.60
2022-07-28T09:59:04.550Z,982.66
2022-07-28T10:00:02.920Z,982.63
2022-07-28T10:01:04.064Z,982.63
2022-07-28T10:02:03.293Z,982.57
2022-07-28T10:03:03.254Z,982.63
2022-07-28T10:04:03.392Z,982.66
2022-07-28T10:05:03.300Z,982.54
2022-07-28T10:06:03.273Z,982.45
2022-07-28T10:07:03.337Z,982.51
2022-07-28T10:08:03.388Z,982.54
2022-07-28T10:09:03.309Z,982.45
2022-07-28T10:10:03.442Z,982.57
2022-07-28T10:11:03.385Z,982.48
2022-07-28T10:12:03.476Z,982.59
2022-07-28T10:13:03.450Z,982.39
2022-07-28T10:14:03.481Z,982.39
2022-07-28T10:15:03.439Z,982.47
2022-07-28T10:16:03.719Z,982.50
2022-07-28T10:17:06.611Z,982.47
2022-07-28T10:18:03.655Z,982.47
2022-07-28T10:19:03.661Z,982.53
2022-07-28T10:20:03.743Z,982.59
2022-07-28T10:21:03.798Z,982.50
2022-07-28T10:22:03.828Z,982.44
2022-07-28T10:23:03.933Z,982.32
2022-07-28T10:24:03.935Z,982.35
2022-07-28T10:25:02.982Z,982.38
2022-07-28T10:26:02.980Z,982.41
2022-07-28T10:27:02.897Z,982.41
2022-07-28T10:28:02.896Z,982.35
2022-07-28T10:29:03.022Z,982.38
2022-07-28T10:30:03.116Z,982.46
2022-07-28T10:31:03.469Z,982.32
2022-07-28T10:32:03.203Z,982.40
2022-07-28T10:33:03.164Z,982.29
2022-07-28T10:34:03.191Z,982.40
2022-07-28T10:35:03.211Z,982.46
2022-07-28T10:36:03.241Z,982.37
2022-07-28T10:37:03.135Z,982.25
2022-07-28T10:38:03.330Z,982.34
2022-07-28T10:39:03.237Z,982.34
2022-07-28T10:40:10.502Z,982.37
2022-07-28T10:41:03.395Z,982.31
2022-07-28T10:42:03.400Z,982.31
2022-07-28T10:43:03.461Z,982.43
2022-07-28T10:44:04.375Z,982.48
2022-07-28T10:45:03.392Z,982.40
2022-07-28T10:46:11.921Z,982.40
2022-07-28T10:47:03.757Z,982.48
2022-07-28T10:48:03.605Z,982.36
2022-07-28T10:49:03.996Z,982.39
2022-07-28T10:50:03.725Z,982.48
2022-07-28T10:51:06.269Z,982.48
2022-07-28T10:52:37.617Z,982.42
2022-07-28T10:53:03.188Z,982.42
2022-07-28T10:54:03.267Z,982.45
2022-07-28T10:55:03.178Z,982.48
2022-07-28T10:56:03.198Z,982.39
2022-07-28T10:57:05.207Z,982.54
2022-07-28T10:58:12.181Z,982.45
2022-07-28T10:59:07.466Z,982.39
2022-07-28T11:00:14.237Z,982.53
2022-07-28T11:01:07.352Z,982.42
2022-07-28T11:02:03.785Z,982.53
2022-07-28T11:03:14.340Z,982.45
2022-07-28T11:04:03.606Z,982.56
2022-07-28T11:05:03.666Z,982.59
2022-07-28T11:06:03.779Z,982.47
2022-07-28T11:07:03.450Z,982.56
2022-07-28T11:08:03.767Z,982.53
2022-07-28T11:09:03.690Z,982.59
2022-07-28T11:10:03.695Z,982.59
2022-07-28T11:11:09.830Z,982.59
2022-07-28T11:12:03.786Z,982.44
2022-07-28T11:13:04.431Z,982.32
2022-07-28T11:14:06.806Z,982.38
2022-07-28T11:15:19.778Z,982.53
2022-07-28T11:16:03.070Z,982.61
2022-07-28T11:17:03.222Z,982.29
2022-07-28T11:18:03.707Z,982.44
2022-07-28T11:19:08.682Z,982.46
2022-07-28T11:20:27.427Z,982.61
2022-07-28T11:21:03.772Z,982.52
2022-07-28T11:22:05.312Z,982.52
2022-07-28T11:23:07.970Z,982.41
2022-07-28T11:24:03.688Z,982.49
2022-07-28T11:25:21.776Z,982.29
2022-07-28T11:26:03.855Z,982.26
2022-07-28T11:27:04.546Z,982.29
2022-07-28T11:28:03.137Z,982.26
2022-07-28T11:29:02.930Z,982.37
2022-07-28T11:30:03.558Z,982.23
2022-07-28T11:31:03.314Z,982.14
2022-07-28T11:32:03.257Z,982.28
2022-07-28T11:33:03.238Z,982.16
2022-07-28T11:34:03.263Z,982.37
2022-07-28T11:35:03.312Z,982.16
2022-07-28T11:36:03.466Z,982.19
2022-07-28T11:37:03.576Z,982.16
2022-07-28T11:38:03.978Z,982.25
2022-07-28T11:39:03.692Z,982.16
2022-07-28T11:40:03.597Z,982.01
2022-07-28T11:41:03.666Z,982.37
2022-07-28T11:42:05.010Z,982.22
2022-07-28T11:43:03.776Z,982.19
2022-07-28T11:44:03.811Z,982.25
2022-07-28T11:45:03.900Z,982.22
2022-07-28T11:46:03.944Z,982.19
2022-07-28T11:47:02.970Z,982.28
2022-07-28T11:48:02.975Z,982.31
2022-07-28T11:49:03.145Z,982.34
2022-07-28T11:50:03.041Z,982.20
2022-07-28T11:51:03.092Z,982.17
2022-07-28T11:52:04.104Z,982.34
2022-07-28T11:53:02.997Z,982.11
2022-07-28T11:54:03.208Z,982.08
2022-07-28T11:55:03.123Z,982.13
2022-07-28T11:56:03.702Z,982.13
2022-07-28T11:57:03.174Z,982.13
2022-07-28T11:58:03.210Z,982.07
2022-07-28T11:59:03.192Z,982.25
2022-07-28T12:00:03.309Z,982.19
2022-07-28T12:01:03.591Z,982.19
2022-07-28T12:02:03.822Z,982.19
2022-07-28T12:03:06.379Z,982.13
2022-07-28T12:04:03.705Z,982.25
2022-07-28T12:05:03.982Z,982.19
2022-07-28T12:06:03.733Z,982.37
2022-07-28T12:07:05.468Z,982.31
2022-07-28T12:08:02.973Z,982.22
2022-07-28T12:09:02.947Z,982.16
2022-07-28T12:10:02.997Z,982.31
2022-07-28T12:11:03.433Z,982.31
2022-07-28T12:12:03.333Z,982.07
2022-07-28T12:13:03.332Z,982.07
2022-07-28T12:14:03.421Z,982.10
2022-07-28T12:15:07.633Z,982.13
2022-07-28T12:16:03.601Z,981.95
2022-07-28T12:17:05.470Z,982.01
2022-07-28T12:18:04.297Z,981.95
2022-07-28T12:19:04.822Z,982.10
2022-07-28T12:20:03.653Z,982.04
2022-07-28T12:21:07.526Z,982.07
2022-07-28T12:22:03.683Z,982.07
2022-07-28T12:23:03.850Z,982.07
2022-07-28T12:24:05.838Z,982.01
2022-07-28T12:25:03.878Z,982.01
2022-07-28T12:26:02.978Z,982.18
2022-07-28T12:27:03.077Z,981.98
2022-07-28T12:28:03.794Z,982.04
2022-07-28T12:29:08.700Z,982.04